Time;durP1;ratioP1;P1;durP2;ratioP2;P2;SDS_P1;SDS_P2;PMS_P1;PMS_P2;Temp;Humidity;BMP_temperature;BMP_pressure;BME280_temperature;BME280_humidity;BME280_pressure;Samples;Min_cycle;Max_cycle;Signal;HPM_P1;HPM_P2
2022/07/18 00:01:00;;;;;;;;;;;26.10;99.90;;;;;;5070774;28;19912;-69
2022/07/18 00:03:26;;;;;;;;;;;26.00;99.90;;;;;;5073132;28;19909;-70
2022/07/18 00:05:51;;;;;;;;;;;26.00;99.90;;;;;;5074654;28;19908;-71
2022/07/18 00:08:17;;;;;;;;;;;26.00;99.90;;;;;;5077828;28;19904;-71
2022/07/18 00:10:43;;;;;;;;;;;26.00;99.90;;;;;;5079572;28;20422;-71
2022/07/18 00:13:09;;;;;;;;;;;26.00;99.90;;;;;;5082393;28;19916;-69
2022/07/18 00:15:35;;;;;;;;;;;25.90;99.90;;;;;;5084382;28;19944;-72
2022/07/18 00:18:01;;;;;;;;;;;25.90;99.90;;;;;;5079679;28;20352;-71
2022/07/18 00:20:27;;;;;;;;;;;25.90;99.90;;;;;;5078477;28;19948;-69
2022/07/18 00:22:53;;;;;;;;;;;25.90;99.90;;;;;;5078460;28;19916;-70
2022/07/18 00:25:18;;;;;;;;;;;25.90;99.90;;;;;;5084559;28;19938;-71
2022/07/18 00:27:44;;;;;;;;;;;25.90;99.90;;;;;;5084301;28;19908;-70
2022/07/18 00:30:10;;;;;;;;;;;25.90;99.90;;;;;;5085776;28;19904;-68
2022/07/18 00:32:35;;;;;;;;;;;25.80;99.90;;;;;;5079019;28;19954;-70
2022/07/18 00:35:01;;;;;;;;;;;25.80;99.90;;;;;;5070469;28;20003;-69
2022/07/18 00:37:26;;;;;;;;;;;25.70;99.90;;;;;;5072055;28;19911;-70
2022/07/18 00:39:52;;;;;;;;;;;25.70;99.90;;;;;;5070512;28;19904;-70
2022/07/18 00:42:19;;;;;;;;;;;25.60;99.90;;;;;;5071926;28;19912;-71
2022/07/18 00:44:45;;;;;;;;;;;25.70;99.90;;;;;;5070157;28;19908;-71
2022/07/18 00:47:10;;;;;;;;;;;25.70;99.90;;;;;;5069031;28;20422;-69
2022/07/18 00:49:36;;;;;;;;;;;25.70;99.90;;;;;;5069808;28;19904;-71
2022/07/18 00:52:02;;;;;;;;;;;25.70;99.90;;;;;;5070288;28;19961;-70
2022/07/18 00:54:28;;;;;;;;;;;25.70;99.90;;;;;;5070217;28;19926;-70
2022/07/18 00:56:53;;;;;;;;;;;25.80;99.90;;;;;;5070342;28;20394;-69
2022/07/18 00:59:19;;;;;;;;;;;25.80;99.90;;;;;;5069974;28;19911;-70
2022/07/18 01:01:47;;;;;;;;;;;25.80;99.90;;;;;;5070059;28;19905;-71
2022/07/18 01:04:15;;;;;;;;;;;25.80;99.90;;;;;;5068553;28;19912;-70
2022/07/18 01:06:41;;;;;;;;;;;25.80;99.90;;;;;;5070091;28;19904;-71
2022/07/18 01:09:07;;;;;;;;;;;25.80;99.90;;;;;;5070054;28;20263;-70
2022/07/18 01:11:34;;;;;;;;;;;25.80;99.90;;;;;;5069765;28;19963;-71
2022/07/18 01:14:01;;;;;;;;;;;25.80;99.90;;;;;;5090464;28;19995;-71
2022/07/18 01:16:26;;;;;;;;;;;25.70;99.90;;;;;;5094111;28;19904;-69
2022/07/18 01:18:52;;;;;;;;;;;25.80;99.90;;;;;;5093651;28;19904;-71
2022/07/18 01:21:18;;;;;;;;;;;25.70;99.90;;;;;;5093725;28;19911;-70
2022/07/18 01:23:43;;;;;;;;;;;25.60;99.90;;;;;;5093862;28;19966;-70
2022/07/18 01:26:10;;;;;;;;;;;25.60;99.90;;;;;;5093737;28;19908;-69
2022/07/18 01:28:36;;;;;;;;;;;25.60;99.90;;;;;;5093878;28;19904;-70
2022/07/18 01:31:01;;;;;;;;;;;25.50;99.90;;;;;;5093431;28;19915;-70
2022/07/18 01:33:27;;;;;;;;;;;25.60;99.90;;;;;;5093485;28;20056;-70
2022/07/18 01:35:53;;;;;;;;;;;25.60;99.90;;;;;;5093556;28;19915;-69
2022/07/18 01:38:19;;;;;;;;;;;25.60;99.90;;;;;;5093531;28;19904;-72
2022/07/18 01:40:45;;;;;;;;;;;25.60;99.90;;;;;;5085395;28;19908;-71
2022/07/18 01:43:10;;;;;;;;;;;25.60;99.90;;;;;;5073399;28;19908;-70
2022/07/18 01:45:36;;;;;;;;;;;25.60;99.90;;;;;;5073498;28;19950;-70
2022/07/18 01:48:02;;;;;;;;;;;25.50;99.90;;;;;;5073284;28;19908;-69
2022/07/18 01:50:28;;;;;;;;;;;25.50;99.90;;;;;;5072640;28;19998;-69
2022/07/18 01:52:54;;;;;;;;;;;25.50;99.90;;;;;;5072788;28;19959;-69
2022/07/18 01:55:19;;;;;;;;;;;25.50;99.90;;;;;;5073067;28;20449;-71
2022/07/18 01:57:45;;;;;;;;;;;25.40;99.90;;;;;;5073545;28;19943;-70
2022/07/18 02:00:11;;;;;;;;;;;25.40;99.90;;;;;;5071757;28;19905;-69
2022/07/18 02:02:37;;;;;;;;;;;25.40;99.90;;;;;;5071637;28;20381;-70
2022/07/18 02:05:03;;;;;;;;;;;25.40;99.90;;;;;;5072661;28;19904;-69
2022/07/18 02:07:33;;;;;;;;;;;25.40;99.90;;;;;;5072522;28;19916;-69
2022/07/18 02:10:00;;;;;;;;;;;25.40;99.90;;;;;;5078827;28;20445;-70
2022/07/18 02:12:25;;;;;;;;;;;25.40;99.90;;;;;;5092752;28;19903;-71
2022/07/18 02:14:51;;;;;;;;;;;25.40;99.90;;;;;;5092721;28;20310;-69
2022/07/18 02:17:18;;;;;;;;;;;25.30;99.90;;;;;;5092076;28;20378;-70
2022/07/18 02:19:44;;;;;;;;;;;25.30;99.90;;;;;;5092351;28;19931;-70
2022/07/18 02:22:10;;;;;;;;;;;25.30;99.90;;;;;;5092795;28;20514;-70
2022/07/18 02:24:36;;;;;;;;;;;25.30;99.90;;;;;;5092624;28;19916;-70
2022/07/18 02:27:01;;;;;;;;;;;25.30;99.90;;;;;;5091794;28;19914;-69
2022/07/18 02:29:27;;;;;;;;;;;25.20;99.90;;;;;;5092141;28;19999;-70
2022/07/18 02:31:53;;;;;;;;;;;25.10;99.90;;;;;;5092513;28;19904;-71
2022/07/18 02:34:18;;;;;;;;;;;25.10;99.90;;;;;;5092378;28;19912;-69
2022/07/18 02:36:44;;;;;;;;;;;25.20;99.90;;;;;;5095591;28;19904;-70
2022/07/18 02:39:09;;;;;;;;;;;25.10;99.90;;;;;;5094952;28;19904;-72
2022/07/18 02:41:35;;;;;;;;;;;25.20;99.90;;;;;;5081086;28;19947;-69
2022/07/18 02:44:01;;;;;;;;;;;25.20;99.90;;;;;;5076398;28;19915;-70
2022/07/18 02:46:27;;;;;;;;;;;25.10;99.90;;;;;;5075917;28;19904;-69
2022/07/18 02:48:53;;;;;;;;;;;25.20;99.90;;;;;;5079810;28;19972;-70
2022/07/18 02:51:18;;;;;;;;;;;25.20;99.90;;;;;;5084142;28;19976;-71
2022/07/18 02:53:44;;;;;;;;;;;25.20;99.90;;;;;;5084956;28;20211;-70
2022/07/18 02:56:09;;;;;;;;;;;25.20;99.90;;;;;;5085676;28;19932;-69
2022/07/18 02:58:36;;;;;;;;;;;25.00;99.90;;;;;;5085520;28;19908;-69
2022/07/18 03:01:01;;;;;;;;;;;25.10;99.90;;;;;;5085985;28;19904;-70
2022/07/18 03:03:27;;;;;;;;;;;25.10;99.90;;;;;;5083393;28;19954;-71
2022/07/18 03:05:52;;;;;;;;;;;25.10;99.90;;;;;;5076318;28;20430;-71
2022/07/18 03:08:18;;;;;;;;;;;25.10;99.90;;;;;;5076182;28;20294;-70
2022/07/18 03:10:43;;;;;;;;;;;24.90;99.90;;;;;;5081520;28;19908;-71
2022/07/18 03:13:10;;;;;;;;;;;25.00;99.90;;;;;;5074605;28;20362;-72
2022/07/18 03:15:36;;;;;;;;;;;25.00;99.90;;;;;;5072277;28;19953;-70
2022/07/18 03:18:01;;;;;;;;;;;25.00;99.90;;;;;;5073276;28;19908;-71
2022/07/18 03:20:27;;;;;;;;;;;24.90;99.90;;;;;;5071946;28;19912;-70
2022/07/18 03:22:52;;;;;;;;;;;24.90;99.90;;;;;;5071699;28;20370;-69
2022/07/18 03:25:18;;;;;;;;;;;25.00;99.90;;;;;;5071297;28;20390;-70
2022/07/18 03:27:43;;;;;;;;;;;24.90;99.90;;;;;;5071532;28;19912;-70
2022/07/18 03:30:09;;;;;;;;;;;25.00;99.90;;;;;;5071344;28;19904;-70
2022/07/18 03:32:35;;;;;;;;;;;24.90;99.90;;;;;;5071332;28;19911;-71
2022/07/18 03:35:01;;;;;;;;;;;24.90;99.90;;;;;;5069738;28;20400;-70
2022/07/18 03:37:26;;;;;;;;;;;25.00;99.90;;;;;;5071491;28;20321;-71
2022/07/18 03:39:52;;;;;;;;;;;25.00;99.90;;;;;;5070955;28;19969;-71
2022/07/18 03:42:17;;;;;;;;;;;25.00;99.90;;;;;;5080887;28;19959;-70
2022/07/18 03:44:43;;;;;;;;;;;25.00;99.90;;;;;;5070871;28;19932;-71
2022/07/18 03:47:09;;;;;;;;;;;25.00;99.90;;;;;;5071002;28;19904;-71
2022/07/18 03:49:35;;;;;;;;;;;24.90;99.90;;;;;;5070562;28;19911;-70
2022/07/18 03:52:00;;;;;;;;;;;25.00;99.90;;;;;;5070884;28;20362;-69
2022/07/18 03:54:26;;;;;;;;;;;25.00;99.90;;;;;;5070177;28;19965;-70
2022/07/18 03:56:51;;;;;;;;;;;25.00;99.90;;;;;;5078349;28;19908;-70
2022/07/18 03:59:17;;;;;;;;;;;25.10;99.90;;;;;;5087951;28;19904;-70
2022/07/18 04:01:42;;;;;;;;;;;25.10;99.90;;;;;;5088226;28;19947;-70
2022/07/18 04:04:08;;;;;;;;;;;25.00;99.90;;;;;;5079549;28;19908;-72
2022/07/18 04:06:33;;;;;;;;;;;25.00;99.90;;;;;;5071395;28;19905;-70
2022/07/18 04:08:59;;;;;;;;;;;25.10;99.90;;;;;;5070944;28;19904;-70
2022/07/18 04:11:25;;;;;;;;;;;25.20;99.90;;;;;;5071060;28;19904;-70
2022/07/18 04:13:51;;;;;;;;;;;25.20;99.90;;;;;;5073516;28;19904;-71
2022/07/18 04:16:16;;;;;;;;;;;25.30;99.90;;;;;;5070633;28;19954;-70
2022/07/18 04:18:42;;;;;;;;;;;25.30;99.90;;;;;;5070432;28;19948;-71
2022/07/18 04:21:07;;;;;;;;;;;25.30;99.90;;;;;;5070232;28;19947;-71
2022/07/18 04:23:33;;;;;;;;;;;25.30;99.90;;;;;;5070508;28;20007;-70
2022/07/18 04:25:59;;;;;;;;;;;25.30;99.90;;;;;;5069481;28;19994;-70
2022/07/18 04:28:24;;;;;;;;;;;25.30;99.90;;;;;;5070832;28;19904;-69
2022/07/18 04:30:50;;;;;;;;;;;25.40;99.90;;;;;;5070293;28;19912;-69
2022/07/18 04:33:16;;;;;;;;;;;25.40;99.90;;;;;;5070590;28;19904;-70
2022/07/18 04:35:41;;;;;;;;;;;25.40;99.90;;;;;;5069038;28;19981;-70
2022/07/18 04:38:08;;;;;;;;;;;25.40;99.90;;;;;;5070618;28;20346;-70
2022/07/18 04:40:34;;;;;;;;;;;25.40;99.90;;;;;;5070112;28;19912;-70
2022/07/18 04:42:59;;;;;;;;;;;25.50;99.90;;;;;;5090384;28;19912;-70
2022/07/18 04:45:25;;;;;;;;;;;25.40;99.90;;;;;;5091460;28;19927;-69
2022/07/18 04:47:51;;;;;;;;;;;25.50;99.90;;;;;;5091586;28;19911;-71
2022/07/18 04:50:17;;;;;;;;;;;25.50;99.90;;;;;;5081929;28;19982;-71
2022/07/18 04:52:43;;;;;;;;;;;25.50;99.90;;;;;;5074398;28;19909;-72
2022/07/18 04:55:10;;;;;;;;;;;25.50;99.90;;;;;;5074524;28;19904;-69
2022/07/18 04:57:35;;;;;;;;;;;25.60;99.90;;;;;;5074564;28;20386;-69
2022/07/18 05:00:06;;;;;;;;;;;25.60;99.90;;;;;;5073460;28;19919;-69
2022/07/18 05:02:31;;;;;;;;;;;25.70;99.90;;;;;;5074486;28;20382;-70
2022/07/18 05:04:57;;;;;;;;;;;25.70;99.90;;;;;;5075294;28;19948;-72
2022/07/18 05:07:22;;;;;;;;;;;25.70;99.90;;;;;;5076912;28;19904;-70
2022/07/18 05:09:48;;;;;;;;;;;25.70;99.90;;;;;;5074129;28;19968;-69
2022/07/18 05:12:13;;;;;;;;;;;25.80;99.90;;;;;;5082497;28;19943;-70
2022/07/18 05:14:39;;;;;;;;;;;25.80;99.90;;;;;;5074086;28;19911;-71
2022/07/18 05:17:05;;;;;;;;;;;25.80;99.90;;;;;;5073899;28;19908;-71
2022/07/18 05:19:30;;;;;;;;;;;25.80;99.90;;;;;;5073727;28;19912;-70
2022/07/18 05:21:56;;;;;;;;;;;25.80;99.90;;;;;;5073747;28;20001;-71
2022/07/18 05:24:22;;;;;;;;;;;25.90;99.90;;;;;;5073968;28;19983;-70
2022/07/18 05:26:47;;;;;;;;;;;26.00;99.90;;;;;;5073815;28;19904;-70
2022/07/18 05:29:13;;;;;;;;;;;26.10;99.90;;;;;;5073372;28;19958;-70
2022/07/18 05:31:39;;;;;;;;;;;26.20;99.90;;;;;;5073637;28;20381;-70
2022/07/18 05:34:05;;;;;;;;;;;26.20;99.90;;;;;;5073467;28;20285;-70
2022/07/18 05:36:31;;;;;;;;;;;26.30;99.90;;;;;;5073545;28;19983;-70
2022/07/18 05:38:57;;;;;;;;;;;26.40;99.90;;;;;;5073600;28;19911;-70
2022/07/18 05:41:22;;;;;;;;;;;26.30;99.90;;;;;;5081651;28;19912;-70
2022/07/18 05:43:48;;;;;;;;;;;26.30;99.90;;;;;;5093599;28;20018;-70
2022/07/18 05:46:13;;;;;;;;;;;26.30;99.90;;;;;;5092378;28;19931;-70
2022/07/18 05:48:39;;;;;;;;;;;26.30;99.90;;;;;;5093978;28;20266;-71
2022/07/18 05:51:06;;;;;;;;;;;26.40;99.90;;;;;;5093802;28;19935;-71
2022/07/18 05:53:31;;;;;;;;;;;26.40;99.90;;;;;;5093617;28;19908;-72
2022/07/18 05:55:57;;;;;;;;;;;26.30;99.90;;;;;;5094823;28;19948;-71
2022/07/18 05:58:22;;;;;;;;;;;26.50;99.90;;;;;;5094060;28;20278;-71
2022/07/18 06:00:48;;;;;;;;;;;26.40;99.90;;;;;;5093584;28;19912;-70
2022/07/18 06:03:14;;;;;;;;;;;26.50;99.90;;;;;;5093773;28;20301;-70
2022/07/18 06:05:40;;;;;;;;;;;26.50;99.90;;;;;;5094882;28;19904;-73
2022/07/18 06:08:06;;;;;;;;;;;26.60;99.90;;;;;;5094394;28;19995;-72
2022/07/18 06:10:31;;;;;;;;;;;26.60;99.90;;;;;;5093741;28;19904;-71
2022/07/18 06:12:57;;;;;;;;;;;26.50;99.90;;;;;;5092880;28;20405;-69
2022/07/18 06:15:22;;;;;;;;;;;26.40;99.90;;;;;;5092509;28;19953;-71
2022/07/18 06:17:48;;;;;;;;;;;26.60;99.90;;;;;;5094155;28;19904;-71
2022/07/18 06:20:14;;;;;;;;;;;26.70;99.90;;;;;;5093817;28;19904;-70
2022/07/18 06:22:40;;;;;;;;;;;26.70;99.90;;;;;;5093847;28;20380;-71
2022/07/18 06:25:06;;;;;;;;;;;26.80;99.90;;;;;;5094228;28;20446;-71
2022/07/18 06:27:31;;;;;;;;;;;26.80;99.90;;;;;;5092366;28;19953;-72
2022/07/18 06:29:58;;;;;;;;;;;26.70;99.90;;;;;;5092982;28;19976;-72
2022/07/18 06:32:24;;;;;;;;;;;26.80;99.90;;;;;;5091861;28;19911;-71
2022/07/18 06:34:50;;;;;;;;;;;26.80;99.90;;;;;;5093197;28;19912;-71
2022/07/18 06:37:16;;;;;;;;;;;26.90;99.90;;;;;;5093454;28;19904;-71
2022/07/18 06:39:41;;;;;;;;;;;27.00;99.90;;;;;;5092888;28;19908;-71
2022/07/18 06:42:07;;;;;;;;;;;27.00;99.90;;;;;;5084262;28;19911;-72
2022/07/18 06:44:32;;;;;;;;;;;27.20;99.90;;;;;;5078109;28;19905;-71
2022/07/18 06:46:59;;;;;;;;;;;27.20;99.90;;;;;;5072486;28;19911;-71
2022/07/18 06:49:25;;;;;;;;;;;27.30;99.90;;;;;;5080996;28;20337;-71
2022/07/18 06:51:51;;;;;;;;;;;27.20;99.90;;;;;;5087238;28;19908;-71
2022/07/18 06:54:16;;;;;;;;;;;27.30;99.90;;;;;;5082941;28;19916;-71
2022/07/18 06:56:42;;;;;;;;;;;27.40;99.90;;;;;;5072902;28;19908;-71
2022/07/18 06:59:07;;;;;;;;;;;27.40;99.90;;;;;;5072134;28;19904;-72
2022/07/18 07:01:33;;;;;;;;;;;27.40;99.90;;;;;;5072762;28;20389;-70
2022/07/18 07:03:59;;;;;;;;;;;27.50;99.90;;;;;;5074674;28;19908;-71
2022/07/18 07:06:24;;;;;;;;;;;27.40;99.90;;;;;;5075423;28;19905;-71
2022/07/18 07:08:50;;;;;;;;;;;27.60;99.90;;;;;;5075051;28;20394;-71
2022/07/18 07:11:15;;;;;;;;;;;27.70;99.90;;;;;;5072597;28;19958;-72
2022/07/18 07:13:41;;;;;;;;;;;27.80;99.90;;;;;;5070770;28;19995;-71
2022/07/18 07:16:07;;;;;;;;;;;27.90;99.90;;;;;;5072219;28;19999;-72
2022/07/18 07:18:32;;;;;;;;;;;27.90;99.90;;;;;;5072762;28;19947;-68
2022/07/18 07:20:58;;;;;;;;;;;27.90;99.90;;;;;;5071661;28;19911;-71
2022/07/18 07:23:24;;;;;;;;;;;28.00;99.90;;;;;;5090977;28;19958;-71
2022/07/18 07:25:49;;;;;;;;;;;28.10;99.90;;;;;;5077028;28;19904;-71
2022/07/18 07:28:15;;;;;;;;;;;28.20;99.90;;;;;;5071826;28;19905;-70
2022/07/18 07:30:42;;;;;;;;;;;28.10;99.90;;;;;;5071392;28;19911;-71
2022/07/18 07:33:08;;;;;;;;;;;28.20;99.90;;;;;;5072182;28;19904;-72
2022/07/18 07:35:39;;;;;;;;;;;28.20;99.90;;;;;;5071741;28;20046;-72
2022/07/18 07:38:05;;;;;;;;;;;28.20;99.90;;;;;;5071623;28;20441;-69
2022/07/18 07:40:31;;;;;;;;;;;28.20;99.90;;;;;;5071453;28;19908;-71
2022/07/18 07:43:12;;;;;;;;;;;28.10;99.90;;;;;;5071381;28;19915;-72
2022/07/18 07:45:38;;;;;;;;;;;28.10;99.90;;;;;;5071657;28;19905;-72
2022/07/18 07:48:04;;;;;;;;;;;28.20;99.90;;;;;;5071687;28;20385;-71
2022/07/18 07:50:30;;;;;;;;;;;28.20;99.80;;;;;;5071426;28;19961;-71
2022/07/18 07:52:56;;;;;;;;;;;28.10;99.90;;;;;;5082626;28;19908;-70
2022/07/18 07:55:21;;;;;;;;;;;28.30;99.90;;;;;;5080128;28;19905;-72
2022/07/18 07:57:47;;;;;;;;;;;28.40;99.90;;;;;;5071145;28;19904;-71
2022/07/18 08:00:13;;;;;;;;;;;28.50;99.80;;;;;;5070874;28;20389;-71
2022/07/18 08:02:49;;;;;;;;;;;28.60;99.80;;;;;;5071206;28;19978;-71
2022/07/18 08:05:15;;;;;;;;;;;28.60;99.80;;;;;;5070012;28;20366;-70
2022/07/18 08:07:40;;;;;;;;;;;28.60;99.70;;;;;;5069694;28;19911;-71
2022/07/18 08:10:06;;;;;;;;;;;28.70;99.60;;;;;;5075344;28;20554;-72
2022/07/18 08:12:32;;;;;;;;;;;28.60;99.60;;;;;;5091260;28;19911;-71
2022/07/18 08:14:57;;;;;;;;;;;28.70;99.70;;;;;;5091283;28;20007;-71
2022/07/18 08:17:23;;;;;;;;;;;28.80;99.50;;;;;;5074873;28;19927;-71
2022/07/18 08:19:48;;;;;;;;;;;28.80;99.60;;;;;;5071321;28;20390;-71
2022/07/18 08:22:17;;;;;;;;;;;28.90;99.60;;;;;;5082528;28;19904;-71
2022/07/18 08:24:43;;;;;;;;;;;29.00;99.20;;;;;;5078032;28;20010;-71
2022/07/18 08:27:09;;;;;;;;;;;29.00;99.10;;;;;;5073796;28;19920;-71
2022/07/18 08:29:35;;;;;;;;;;;29.10;99.10;;;;;;5075267;28;19905;-71
2022/07/18 08:32:00;;;;;;;;;;;29.00;99.10;;;;;;5074918;28;19904;-71
2022/07/18 08:34:26;;;;;;;;;;;28.90;99.20;;;;;;5085791;28;19916;-72
2022/07/18 08:36:52;;;;;;;;;;;29.00;99.00;;;;;;5095095;28;19918;-72
2022/07/18 08:39:17;;;;;;;;;;;29.10;99.00;;;;;;5094922;28;20388;-71
2022/07/18 08:41:46;;;;;;;;;;;29.00;98.80;;;;;;5095399;28;19950;-71
2022/07/18 08:44:12;;;;;;;;;;;29.00;99.10;;;;;;5095030;28;20293;-70
2022/07/18 08:46:39;;;;;;;;;;;29.20;99.10;;;;;;5093986;28;19998;-71
2022/07/18 08:49:06;;;;;;;;;;;29.30;98.60;;;;;;5095040;28;19904;-71
2022/07/18 08:51:34;;;;;;;;;;;29.30;98.80;;;;;;5095120;28;19943;-71
2022/07/18 08:54:03;;;;;;;;;;;29.40;98.90;;;;;;5084930;28;19970;-71
2022/07/18 08:56:33;;;;;;;;;;;29.60;98.80;;;;;;5076241;28;20500;-72
2022/07/18 08:59:02;;;;;;;;;;;29.60;98.70;;;;;;5073773;28;19904;-71
2022/07/18 09:01:30;;;;;;;;;;;29.70;98.50;;;;;;5075471;28;19905;-74
2022/07/18 09:06:47;;;;;;;;;;;29.60;98.30;;;;;;5074950;28;19969;-71
2022/07/18 09:09:14;;;;;;;;;;;29.70;98.30;;;;;;5074015;28;19909;-69
2022/07/18 09:12:12;;;;;;;;;;;29.80;98.10;;;;;;5074697;28;19904;-72
2022/07/18 09:14:38;;;;;;;;;;;30.00;98.10;;;;;;5075231;28;19911;-72
2022/07/18 09:17:06;;;;;;;;;;;30.20;97.50;;;;;;5074587;28;20366;-71
2022/07/18 09:19:32;;;;;;;;;;;30.20;97.20;;;;;;5081815;28;19908;-71
2022/07/18 09:22:14;;;;;;;;;;;30.10;97.60;;;;;;5088035;28;20302;-72
2022/07/18 09:24:53;;;;;;;;;;;30.20;97.40;;;;;;5084525;28;19912;-71
2022/07/18 09:27:26;;;;;;;;;;;30.30;97.20;;;;;;5083542;28;19904;-72
2022/07/18 09:30:10;;;;;;;;;;;30.30;97.20;;;;;;5077763;28;20081;-71
2022/07/18 09:32:36;;;;;;;;;;;30.10;97.00;;;;;;5074251;28;19911;-73
2022/07/18 09:35:05;;;;;;;;;;;30.40;96.90;;;;;;5073744;28;19916;-72
2022/07/18 09:37:31;;;;;;;;;;;30.40;96.60;;;;;;5073112;28;19930;-71
2022/07/18 09:40:15;;;;;;;;;;;30.50;96.60;;;;;;5073703;28;19965;-70
2022/07/18 09:42:41;;;;;;;;;;;30.60;96.40;;;;;;5075086;28;20319;-72
2022/07/18 09:45:07;;;;;;;;;;;30.60;96.20;;;;;;5073845;28;19983;-72
2022/07/18 09:47:47;;;;;;;;;;;30.70;96.00;;;;;;5075748;28;19983;-73
2022/07/18 09:50:24;;;;;;;;;;;30.70;95.70;;;;;;5074445;28;19904;-71
2022/07/18 09:53:04;;;;;;;;;;;30.70;95.50;;;;;;5080687;28;19908;-72
2022/07/18 09:55:30;;;;;;;;;;;30.80;95.50;;;;;;5085147;28;20038;-71
2022/07/18 09:58:01;;;;;;;;;;;30.80;95.60;;;;;;5077055;28;19938;-71
2022/07/18 10:00:27;;;;;;;;;;;30.80;95.40;;;;;;5076336;28;19954;-72
2022/07/18 10:02:54;;;;;;;;;;;30.90;95.30;;;;;;5073894;28;19995;-71
2022/07/18 10:05:19;;;;;;;;;;;31.10;95.30;;;;;;5075647;28;19904;-70
2022/07/18 10:07:45;;;;;;;;;;;31.30;94.70;;;;;;5072458;28;19912;-71
2022/07/18 10:10:13;;;;;;;;;;;31.30;95.10;;;;;;5073456;28;19905;-71
2022/07/18 10:12:39;;;;;;;;;;;31.40;95.00;;;;;;5072486;28;19911;-72
2022/07/18 10:15:05;;;;;;;;;;;31.30;94.80;;;;;;5073665;28;19904;-72
2022/07/18 10:17:31;;;;;;;;;;;31.10;95.30;;;;;;5073611;28;19908;-71
2022/07/18 10:20:02;;;;;;;;;;;31.30;94.90;;;;;;5073207;28;19904;-73
2022/07/18 10:22:28;;;;;;;;;;;31.40;94.90;;;;;;5073006;28;20007;-73
2022/07/18 10:24:54;;;;;;;;;;;31.50;94.70;;;;;;5073159;28;19987;-75
2022/07/18 10:27:20;;;;;;;;;;;31.70;94.60;;;;;;5071939;28;19905;-72
2022/07/18 10:30:04;;;;;;;;;;;31.70;94.50;;;;;;5071134;28;20426;-71
2022/07/18 10:32:36;;;;;;;;;;;31.70;94.20;;;;;;5073017;28;19912;-72
2022/07/18 10:35:02;;;;;;;;;;;31.50;94.60;;;;;;5071830;28;19913;-73
2022/07/18 10:37:31;;;;;;;;;;;31.40;94.90;;;;;;5071268;28;19927;-73
2022/07/18 10:40:16;;;;;;;;;;;31.40;94.70;;;;;;5071342;28;19904;-71
2022/07/18 10:42:42;;;;;;;;;;;31.40;94.50;;;;;;5071123;28;19927;-72
2022/07/18 10:45:27;;;;;;;;;;;31.70;94.50;;;;;;5070843;28;19927;-72
2022/07/18 10:47:52;;;;;;;;;;;31.70;94.60;;;;;;5077072;28;19912;-71
2022/07/18 10:50:18;;;;;;;;;;;31.80;94.30;;;;;;5092030;28;19912;-72
2022/07/18 10:52:47;;;;;;;;;;;31.80;94.20;;;;;;5091765;28;20330;-69
2022/07/18 10:55:22;;;;;;;;;;;31.60;94.30;;;;;;5092798;28;19915;-71
2022/07/18 10:57:50;;;;;;;;;;;31.60;94.20;;;;;;5093073;28;19948;-71
2022/07/18 11:00:23;;;;;;;;;;;31.90;94.10;;;;;;5092455;28;19904;-70
2022/07/18 11:03:05;;;;;;;;;;;32.20;93.80;;;;;;5089201;28;19920;-71
2022/07/18 11:05:31;;;;;;;;;;;32.20;94.00;;;;;;5072071;28;20062;-72
2022/07/18 11:08:03;;;;;;;;;;;31.90;94.00;;;;;;5071720;28;19954;-71
2022/07/18 11:10:41;;;;;;;;;;;31.90;94.20;;;;;;5071505;28;19905;-73
2022/07/18 11:13:35;;;;;;;;;;;32.20;94.00;;;;;;5072524;28;19955;-71
2022/07/18 11:16:07;;;;;;;;;;;32.20;93.80;;;;;;5072586;28;20336;-71
2022/07/18 11:18:38;;;;;;;;;;;32.30;94.10;;;;;;5073298;28;20396;-71
2022/07/18 11:21:24;;;;;;;;;;;32.40;93.70;;;;;;5070155;28;19912;-73
2022/07/18 11:24:11;;;;;;;;;;;32.50;93.80;;;;;;5070191;28;19908;-73
2022/07/18 11:26:38;;;;;;;;;;;32.50;93.00;;;;;;5072388;28;19905;-72
2022/07/18 11:29:04;;;;;;;;;;;32.50;93.40;;;;;;5071408;28;19928;-73
2022/07/18 11:31:30;;;;;;;;;;;32.50;93.40;;;;;;5071446;28;19904;-72
2022/07/18 11:33:58;;;;;;;;;;;32.30;93.10;;;;;;5073896;28;19923;-73
2022/07/18 11:36:28;;;;;;;;;;;32.30;93.10;;;;;;5081797;28;20386;-72
2022/07/18 11:38:54;;;;;;;;;;;32.40;92.80;;;;;;5072323;28;19919;-72
2022/07/18 11:41:21;;;;;;;;;;;32.60;92.70;;;;;;5090467;28;19924;-70
2022/07/18 11:43:48;;;;;;;;;;;32.50;92.90;;;;;;5091628;28;19915;-70
2022/07/18 11:46:15;;;;;;;;;;;32.30;93.00;;;;;;5090463;28;19908;-72
2022/07/18 11:48:41;;;;;;;;;;;32.10;92.90;;;;;;5086787;28;20725;-72
2022/07/18 11:51:11;;;;;;;;;;;31.90;93.00;;;;;;5090960;28;19908;-72
2022/07/18 11:53:42;;;;;;;;;;;32.20;93.30;;;;;;5091221;28;20364;-73
2022/07/18 11:56:07;;;;;;;;;;;32.50;92.80;;;;;;5090344;28;19915;-72
2022/07/18 11:58:37;;;;;;;;;;;32.60;92.40;;;;;;5090673;28;19904;-73
2022/07/18 12:01:02;;;;;;;;;;;32.80;92.40;;;;;;5089650;28;19912;-71
2022/07/18 12:03:28;;;;;;;;;;;32.90;91.90;;;;;;5091154;28;19957;-72
2022/07/18 12:05:54;;;;;;;;;;;32.70;92.40;;;;;;5091054;28;20384;-73
2022/07/18 12:08:39;;;;;;;;;;;32.80;92.60;;;;;;5089849;28;19912;-71
2022/07/18 12:11:12;;;;;;;;;;;32.80;92.10;;;;;;5089608;28;19957;-73
2022/07/18 12:13:46;;;;;;;;;;;33.00;91.80;;;;;;5091273;28;19929;-72
2022/07/18 12:16:25;;;;;;;;;;;33.10;91.70;;;;;;5089667;28;19904;-72
2022/07/18 12:18:51;;;;;;;;;;;32.70;91.70;;;;;;5089136;28;19905;-75
2022/07/18 12:21:17;;;;;;;;;;;32.40;91.60;;;;;;5071406;28;19916;-73
2022/07/18 12:23:42;;;;;;;;;;;32.80;91.60;;;;;;5069487;28;20002;-71
2022/07/18 12:26:08;;;;;;;;;;;33.00;91.50;;;;;;5069598;28;20278;-72
2022/07/18 12:28:34;;;;;;;;;;;33.20;91.60;;;;;;5069519;28;19904;-72
2022/07/18 12:30:59;;;;;;;;;;;33.40;91.20;;;;;;5070609;28;20340;-72
2022/07/18 12:33:25;;;;;;;;;;;33.70;91.20;;;;;;5070953;28;20379;-71
2022/07/18 12:35:56;;;;;;;;;;;33.70;91.10;;;;;;5073798;28;19912;-71
2022/07/18 12:38:22;;;;;;;;;;;33.80;90.80;;;;;;5071624;28;20008;-72
2022/07/18 12:40:52;;;;;;;;;;;33.40;91.00;;;;;;5070742;28;19936;-72
2022/07/18 12:43:32;;;;;;;;;;;33.20;91.40;;;;;;5070615;28;19908;-73
2022/07/18 12:45:59;;;;;;;;;;;33.30;91.00;;;;;;5069500;28;19904;-72
2022/07/18 12:48:26;;;;;;;;;;;33.50;90.90;;;;;;5070724;28;19981;-73
2022/07/18 12:51:00;;;;;;;;;;;33.80;90.90;;;;;;5075885;28;19912;-73
2022/07/18 12:53:26;;;;;;;;;;;34.20;90.50;;;;;;5068696;28;20016;-72
2022/07/18 12:55:52;;;;;;;;;;;34.20;90.50;;;;;;5070693;28;19993;-74
2022/07/18 12:58:17;;;;;;;;;;;33.70;90.30;;;;;;5070355;28;19912;-73
2022/07/18 13:00:45;;;;;;;;;;;33.40;90.80;;;;;;5070355;28;20004;-73
2022/07/18 13:03:10;;;;;;;;;;;33.70;90.90;;;;;;5069187;28;19908;-71
2022/07/18 13:05:36;;;;;;;;;;;33.80;90.70;;;;;;5070530;28;20242;-72
2022/07/18 13:08:02;;;;;;;;;;;33.90;90.90;;;;;;5069192;28;20377;-72
2022/07/18 13:10:27;;;;;;;;;;;33.80;90.20;;;;;;5070075;28;19912;-72
2022/07/18 13:12:53;;;;;;;;;;;33.90;90.20;;;;;;5071054;28;19904;-70
2022/07/18 13:15:20;;;;;;;;;;;34.10;90.30;;;;;;5072571;28;19904;-71
2022/07/18 13:17:48;;;;;;;;;;;34.50;90.80;;;;;;5074323;28;19983;-72
2022/07/18 13:20:14;;;;;;;;;;;33.30;99.90;;;;;;5090593;28;19904;-71
2022/07/18 13:22:40;;;;;;;;;;;32.60;99.90;;;;;;5080094;28;20028;-72
2022/07/18 13:25:07;;;;;;;;;;;31.80;99.90;;;;;;5074127;28;19909;-72
2022/07/18 13:27:33;;;;;;;;;;;31.20;99.90;;;;;;5077645;28;20048;-74
2022/07/18 13:30:00;;;;;;;;;;;30.90;99.90;;;;;;5077145;28;19943;-73
2022/07/18 13:32:27;;;;;;;;;;;30.70;99.90;;;;;;5073629;28;20419;-71
2022/07/18 13:34:52;;;;;;;;;;;30.40;99.90;;;;;;5073493;28;19916;-72
2022/07/18 13:37:18;;;;;;;;;;;30.20;99.90;;;;;;5072258;28;19957;-71
2022/07/18 13:39:44;;;;;;;;;;;29.90;99.90;;;;;;5073190;28;20103;-72
2022/07/18 13:42:09;;;;;;;;;;;29.70;99.90;;;;;;5073578;28;20339;-71
2022/07/18 13:44:35;;;;;;;;;;;29.80;99.90;;;;;;5073346;28;19909;-73
2022/07/18 13:47:00;;;;;;;;;;;29.90;99.90;;;;;;5073863;28;19950;-73
2022/07/18 13:49:26;;;;;;;;;;;29.90;99.90;;;;;;5073548;28;19939;-74
2022/07/18 13:51:52;;;;;;;;;;;30.00;99.90;;;;;;5073414;28;19931;-70
2022/07/18 13:54:18;;;;;;;;;;;30.10;99.90;;;;;;5073555;28;20282;-73
2022/07/18 13:56:44;;;;;;;;;;;30.10;99.90;;;;;;5072510;28;19911;-74
2022/07/18 13:59:10;;;;;;;;;;;29.90;99.90;;;;;;5071871;28;19908;-72
2022/07/18 14:01:35;;;;;;;;;;;29.80;99.90;;;;;;5077767;28;19915;-71
2022/07/18 14:04:01;;;;;;;;;;;29.70;99.90;;;;;;5093641;28;19930;-73
2022/07/18 14:06:27;;;;;;;;;;;29.60;99.90;;;;;;5092090;28;19904;-73
2022/07/18 14:08:52;;;;;;;;;;;29.50;99.90;;;;;;5093259;28;19912;-71
2022/07/18 14:11:18;;;;;;;;;;;29.60;99.90;;;;;;5092991;28;19911;-72
2022/07/18 14:13:44;;;;;;;;;;;29.60;99.90;;;;;;5093073;28;19904;-71
2022/07/18 14:16:10;;;;;;;;;;;29.60;99.90;;;;;;5093239;28;19994;-71
2022/07/18 14:18:35;;;;;;;;;;;29.60;99.90;;;;;;5091867;28;19904;-73